• Join FlightAware (Why Join?)
  • Login
  • US Flag 
09:28PM EST


 

Airport Tracker/Info


-or-


 

Live Flight TrackerFlight Track Log ✈ DAL3721 ✈ 27-Apr-2013 ✈ KMLU - KATL

Flight Track Log - Related Links

Times and Time Zones

All times are in EDT time to prevent confusion due to time zone crossing. See the DAL3721 flight status page for this flight to view local times or setup timezone preferences in your user account.

Time Position Orientation Groundspeed Altitude Reporting Facility
EDT Latitude Longitude Course Direction KTS MPH feet Rate Location/Type
03:25PM 32.4833 -91.4921 90° East  Level FlightAware Approximate
03:25PM 32.4711 -91.8372 94° East 295 339 7,300  Level Memphis Center
03:26PM 32.4833 -91.3566 90° East  Level FlightAware Approximate
03:26PM 32.4639 -91.7361 95° East 375 432 10,000  Level Memphis Center
03:27PM 32.4803 -91.2212 93° East  Level FlightAware Approximate
03:27PM 32.4672 -91.6253 88° East 338 389 10,900  Level Memphis Center
03:28PM 32.4736 -91.0859 93° East  Level FlightAware Approximate
03:28PM 32.4622 -91.5047 93° East 339 390 12,800  Level Memphis Center
03:29PM 32.4667 -90.9507 93° East  Level FlightAware Approximate
03:29PM 32.4631 -91.3864 89° East 370 426 14,000  Level Memphis Center
03:30PM 32.4578 -90.8156 94° East  Level FlightAware Approximate
03:30PM 32.4578 -91.2561 93° East 386 444 16,000  Level Memphis Center
03:31PM 32.4567 -91.1231 91° East 396 456 17,500 1,380 Climbing Memphis Center
03:32PM 32.4511 -90.9803 93° East 412 474 18,800 1,200 Climbing Memphis Center
03:33PM 32.4478 -90.8375 92° East 423 487 20,000 1,080 Climbing Memphis Center
03:34PM 32.4439 -90.6919 92° East 428 493 21,000 960 Climbing Memphis Center
03:35PM 32.4400 -90.5469 92° East 440 506 22,000 1,080 Climbing Memphis Center
03:36PM 32.4361 -90.3942 92° East 445 512 23,200 1,440 Climbing Memphis Center
03:37PM 32.4317 -90.2489 92° East 450 518 24,900 1,500 Climbing Memphis Center
03:38PM 32.4253 -90.0914 93° East 442 509 26,200 1,500 Climbing Memphis Center
03:39PM 32.4228 -89.9683 91° East 432 497 27,900 1,320 Climbing Memphis Center
03:40PM 32.4181 -89.8306 92° East 422 486 28,900 540 Climbing Memphis Center
03:41PM 32.4111 -89.6708 93° East 428 493 29,000  Climbing Memphis Center
03:42PM 32.4061 -89.5183 92° East 447 514 29,000  Level Memphis Center
03:43PM 32.4006 -89.3583 92° East 464 534 29,000  Level Memphis Center
03:44PM 32.3950 -89.2008 92° East 475 547 29,000  Level Memphis Center
03:45PM 32.3872 -89.0386 93° East 481 554 29,000  Level Memphis Center
03:46PM 32.3814 -88.8814 92° East 481 554 29,000  Level Memphis Center
03:47PM 32.3897 -88.7164 87° East 476 548 29,000  Level Memphis Center
03:48PM 32.4203 -88.4775 81° East 487 560 29,000  Level Atlanta Center
03:49PM 32.4364 -88.3136 83° East 497 572 29,000  Level Atlanta Center
03:50PM 32.4567 -88.1519 82° East 497 572 29,000  Level Atlanta Center
03:51PM 32.4850 -87.9883 78° East 497 572 29,000  Level Atlanta Center
03:52PM 32.5144 -87.8419 77° East 508 585 29,000  Level Atlanta Center
03:53PM 32.5511 -87.6686 76° East 502 578 29,000  Level Atlanta Center
03:54PM 32.5850 -87.5072 76° East 497 572 29,000  Level Atlanta Center
03:55PM 32.6206 -87.3458 75° East 497 572 29,000  Level Atlanta Center
03:56PM 32.6542 -87.1869 76° East 497 572 29,000  Level Atlanta Center
03:57PM 32.6872 -87.0250 76° East 497 572 29,000  Level Atlanta Center
03:58PM 32.7225 -86.8633 75° East 497 572 29,000  Level Atlanta Center
03:59PM 32.7508 -86.7086 78° East 497 572 29,000  Level Atlanta Center
04:00PM 32.7856 -86.5492 75° East 497 572 29,000 -540 Level Atlanta Center
04:01PM 32.8306 -86.3872 72° East 497 572 28,000 -1,020 Descending Atlanta Center
04:02PM 32.8731 -86.2303 72° East 497 572 27,000 -1,200 Descending Atlanta Center
04:03PM 32.9114 -86.0703 74° East 492 566 25,700 -1,800 Descending Atlanta Center
04:04PM 32.9556 -85.9153 71° East 498 573 23,400 -2,280 Descending Atlanta Center
04:05PM 32.9953 -85.7600 73° East 493 567 21,200 -2,220 Descending Atlanta Center
04:06PM 33.0328 -85.6097 73° East 486 559 19,000 -2,100 Descending Atlanta Center
04:07PM 33.0700 -85.4617 73° East 475 547 17,000 -1,860 Descending Atlanta Center
04:08PM 33.1050 -85.3358 72° East 458 527 15,300 -1,860 Descending Atlanta Center
04:09PM 33.1397 -85.1997 73° East 437 503 13,300 -1,560 Descending Atlanta Center
04:10PM 33.1700 -85.0786 73° East 401 461 12,200 -720 Descending Atlanta Center
04:11PM 33.2167 -84.9872 59° Northeast 341 392 11,900 -660 Descending Atlanta Center
04:12PM 33.2756 -84.9086 48° Northeast 317 365 10,900 -1,020 Descending Atlanta Center
04:13PM 33.3347 -84.8294 48° Northeast 312 359 9,900 -1,320 Descending Atlanta Center
04:14PM 33.4058 -84.7803 30° Northeast 302 348 8,300 -1,680 Descending Atlanta Center
04:15PM 33.4897 -84.7386 22° Northeast 292 336 6,600 -1,620 Descending Atlanta Center
04:16PM 33.5628 -84.6994 24° Northeast 292 336 5,100 -1,500 Descending Atlanta Center
04:16PM 33.5833 -84.6833 33° Northeast 261 300 4,700 -1,380 Descending Atlanta TRACON